sensor_id;sensor_type;location;lat;lon;timestamp;temperature;humidity
8463;DHT22;4268;52.506;13.462;2022-10-16T00:01:24;14.50;99.90
8463;DHT22;4268;52.506;13.462;2022-10-16T00:03:50;14.50;99.90
8463;DHT22;4268;52.506;13.462;2022-10-16T00:06:18;14.50;99.90
8463;DHT22;4268;52.506;13.462;2022-10-16T00:08:44;14.60;99.90
8463;DHT22;4268;52.506;13.462;2022-10-16T00:11:13;14.60;99.90
8463;DHT22;4268;52.506;13.462;2022-10-16T00:13:41;14.60;99.90
8463;DHT22;4268;52.506;13.462;2022-10-16T00:16:07;14.60;99.90
8463;DHT22;4268;52.506;13.462;2022-10-16T00:18:33;14.60;99.90
8463;DHT22;4268;52.506;13.462;2022-10-16T00:21:12;14.70;99.90
8463;DHT22;4268;52.506;13.462;2022-10-16T00:23:38;14.70;99.90
8463;DHT22;4268;52.506;13.462;2022-10-16T00:26:06;14.70;99.90
8463;DHT22;4268;52.506;13.462;2022-10-16T00:28:33;14.70;99.90
8463;DHT22;4268;52.506;13.462;2022-10-16T00:30:58;14.80;99.90
8463;DHT22;4268;52.506;13.462;2022-10-16T00:33:24;14.80;99.90
8463;DHT22;4268;52.506;13.462;2022-10-16T00:35:50;14.80;99.90
8463;DHT22;4268;52.506;13.462;2022-10-16T00:38:16;14.90;99.90
8463;DHT22;4268;52.506;13.462;2022-10-16T00:40:41;14.90;99.90
8463;DHT22;4268;52.506;13.462;2022-10-16T00:43:31;14.90;99.90
8463;DHT22;4268;52.506;13.462;2022-10-16T00:45:57;14.90;99.90
8463;DHT22;4268;52.506;13.462;2022-10-16T00:48:23;14.80;99.90
8463;DHT22;4268;52.506;13.462;2022-10-16T00:50:48;15.00;99.90
8463;DHT22;4268;52.506;13.462;2022-10-16T00:53:14;14.90;99.90
8463;DHT22;4268;52.506;13.462;2022-10-16T00:55:40;14.90;99.90
8463;DHT22;4268;52.506;13.462;2022-10-16T00:58:06;14.90;99.90
8463;DHT22;4268;52.506;13.462;2022-10-16T01:00:31;15.00;99.90
8463;DHT22;4268;52.506;13.462;2022-10-16T01:03:00;15.00;99.90
8463;DHT22;4268;52.506;13.462;2022-10-16T01:05:37;15.00;99.90
8463;DHT22;4268;52.506;13.462;2022-10-16T01:08:13;14.90;99.90
8463;DHT22;4268;52.506;13.462;2022-10-16T01:10:52;14.90;99.90
8463;DHT22;4268;52.506;13.462;2022-10-16T01:13:27;14.90;99.90
8463;DHT22;4268;52.506;13.462;2022-10-16T01:16:21;14.90;99.90
8463;DHT22;4268;52.506;13.462;2022-10-16T01:18:54;15.00;99.90
8463;DHT22;4268;52.506;13.462;2022-10-16T01:21:26;15.00;99.90
8463;DHT22;4268;52.506;13.462;2022-10-16T01:29:21;14.90;99.90
8463;DHT22;4268;52.506;13.462;2022-10-16T01:32:00;14.90;99.90
8463;DHT22;4268;52.506;13.462;2022-10-16T01:34:37;14.90;99.90
8463;DHT22;4268;52.506;13.462;2022-10-16T01:37:12;14.90;99.90
8463;DHT22;4268;52.506;13.462;2022-10-16T01:39:42;14.90;99.90
8463;DHT22;4268;52.506;13.462;2022-10-16T01:42:34;14.90;99.90
8463;DHT22;4268;52.506;13.462;2022-10-16T01:45:02;14.90;99.90
8463;DHT22;4268;52.506;13.462;2022-10-16T01:47:32;14.90;99.90
8463;DHT22;4268;52.506;13.462;2022-10-16T01:49:59;14.90;99.90
8463;DHT22;4268;52.506;13.462;2022-10-16T01:52:26;14.90;99.90
8463;DHT22;4268;52.506;13.462;2022-10-16T01:54:55;15.00;99.90
8463;DHT22;4268;52.506;13.462;2022-10-16T01:57:24;14.90;99.90
8463;DHT22;4268;52.506;13.462;2022-10-16T01:59:54;14.90;99.90
8463;DHT22;4268;52.506;13.462;2022-10-16T02:02:21;14.90;99.90
8463;DHT22;4268;52.506;13.462;2022-10-16T02:04:53;14.90;99.90
8463;DHT22;4268;52.506;13.462;2022-10-16T02:07:20;15.00;99.90
8463;DHT22;4268;52.506;13.462;2022-10-16T02:09:46;15.00;99.90
8463;DHT22;4268;52.506;13.462;2022-10-16T02:14:43;15.00;99.90
8463;DHT22;4268;52.506;13.462;2022-10-16T02:17:16;15.10;99.90
8463;DHT22;4268;52.506;13.462;2022-10-16T02:19:44;15.10;99.90
8463;DHT22;4268;52.506;13.462;2022-10-16T02:22:17;15.10;99.90
8463;DHT22;4268;52.506;13.462;2022-10-16T02:25:02;15.10;99.90
8463;DHT22;4268;52.506;13.462;2022-10-16T02:27:45;15.10;99.90
8463;DHT22;4268;52.506;13.462;2022-10-16T02:30:30;15.10;99.90
8463;DHT22;4268;52.506;13.462;2022-10-16T02:32:59;15.20;99.90
8463;DHT22;4268;52.506;13.462;2022-10-16T02:35:25;15.20;99.90
8463;DHT22;4268;52.506;13.462;2022-10-16T02:37:52;15.20;99.90
8463;DHT22;4268;52.506;13.462;2022-10-16T02:40:19;15.20;99.90
8463;DHT22;4268;52.506;13.462;2022-10-16T02:42:44;15.20;99.90
8463;DHT22;4268;52.506;13.462;2022-10-16T02:45:14;15.20;99.90
8463;DHT22;4268;52.506;13.462;2022-10-16T02:47:40;15.20;99.90
8463;DHT22;4268;52.506;13.462;2022-10-16T02:50:06;15.20;99.90
8463;DHT22;4268;52.506;13.462;2022-10-16T02:52:31;15.20;99.90
8463;DHT22;4268;52.506;13.462;2022-10-16T02:54:56;15.20;99.90
8463;DHT22;4268;52.506;13.462;2022-10-16T02:57:22;15.30;99.90
8463;DHT22;4268;52.506;13.462;2022-10-16T02:59:47;15.20;99.90
8463;DHT22;4268;52.506;13.462;2022-10-16T03:02:13;15.20;99.90
8463;DHT22;4268;52.506;13.462;2022-10-16T03:04:38;15.20;99.90
8463;DHT22;4268;52.506;13.462;2022-10-16T03:07:04;15.20;99.90
8463;DHT22;4268;52.506;13.462;2022-10-16T03:09:29;15.30;99.90
8463;DHT22;4268;52.506;13.462;2022-10-16T03:11:55;15.20;99.90
8463;DHT22;4268;52.506;13.462;2022-10-16T03:14:21;15.20;99.90
8463;DHT22;4268;52.506;13.462;2022-10-16T03:16:46;15.10;99.90
8463;DHT22;4268;52.506;13.462;2022-10-16T03:19:12;15.10;99.90
8463;DHT22;4268;52.506;13.462;2022-10-16T03:21:37;15.10;99.90
8463;DHT22;4268;52.506;13.462;2022-10-16T03:24:03;15.10;99.90
8463;DHT22;4268;52.506;13.462;2022-10-16T03:26:28;15.10;99.90
8463;DHT22;4268;52.506;13.462;2022-10-16T03:28:54;15.10;99.90
8463;DHT22;4268;52.506;13.462;2022-10-16T03:31:19;15.10;99.90
8463;DHT22;4268;52.506;13.462;2022-10-16T03:33:45;15.10;99.90
8463;DHT22;4268;52.506;13.462;2022-10-16T03:36:10;15.00;99.90
8463;DHT22;4268;52.506;13.462;2022-10-16T03:38:36;15.00;99.90
8463;DHT22;4268;52.506;13.462;2022-10-16T03:41:01;15.00;99.90
8463;DHT22;4268;52.506;13.462;2022-10-16T03:43:27;15.00;99.90
8463;DHT22;4268;52.506;13.462;2022-10-16T03:45:52;15.00;99.90
8463;DHT22;4268;52.506;13.462;2022-10-16T03:48:18;15.00;99.90
8463;DHT22;4268;52.506;13.462;2022-10-16T03:50:44;15.00;99.90
8463;DHT22;4268;52.506;13.462;2022-10-16T03:53:10;15.00;99.90
8463;DHT22;4268;52.506;13.462;2022-10-16T03:55:35;15.00;99.90
8463;DHT22;4268;52.506;13.462;2022-10-16T03:58:01;14.90;99.90
8463;DHT22;4268;52.506;13.462;2022-10-16T04:00:27;14.90;99.90
8463;DHT22;4268;52.506;13.462;2022-10-16T04:02:52;14.90;99.90
8463;DHT22;4268;52.506;13.462;2022-10-16T04:05:18;14.90;99.90
8463;DHT22;4268;52.506;13.462;2022-10-16T04:07:43;14.90;99.90
8463;DHT22;4268;52.506;13.462;2022-10-16T04:10:09;14.90;99.90
8463;DHT22;4268;52.506;13.462;2022-10-16T04:12:35;14.80;99.90
8463;DHT22;4268;52.506;13.462;2022-10-16T04:15:01;14.80;99.90
8463;DHT22;4268;52.506;13.462;2022-10-16T04:17:26;14.80;99.90
8463;DHT22;4268;52.506;13.462;2022-10-16T04:19:51;14.80;99.90
8463;DHT22;4268;52.506;13.462;2022-10-16T04:22:17;14.80;99.90
8463;DHT22;4268;52.506;13.462;2022-10-16T04:24:42;14.80;99.90
8463;DHT22;4268;52.506;13.462;2022-10-16T04:27:08;14.80;99.90
8463;DHT22;4268;52.506;13.462;2022-10-16T04:29:33;14.80;99.90
8463;DHT22;4268;52.506;13.462;2022-10-16T04:31:59;14.80;99.90
8463;DHT22;4268;52.506;13.462;2022-10-16T04:34:24;14.80;99.90
8463;DHT22;4268;52.506;13.462;2022-10-16T04:36:50;14.80;99.90
8463;DHT22;4268;52.506;13.462;2022-10-16T04:39:16;14.60;99.90
8463;DHT22;4268;52.506;13.462;2022-10-16T04:41:41;14.70;99.90
8463;DHT22;4268;52.506;13.462;2022-10-16T04:44:07;14.70;99.90
8463;DHT22;4268;52.506;13.462;2022-10-16T04:46:33;14.70;99.90
8463;DHT22;4268;52.506;13.462;2022-10-16T04:48:59;14.70;99.90
8463;DHT22;4268;52.506;13.462;2022-10-16T04:51:24;14.60;99.90
8463;DHT22;4268;52.506;13.462;2022-10-16T04:53:51;14.60;99.90
8463;DHT22;4268;52.506;13.462;2022-10-16T04:56:16;14.60;99.90
8463;DHT22;4268;52.506;13.462;2022-10-16T04:58:42;14.60;99.90
8463;DHT22;4268;52.506;13.462;2022-10-16T05:01:08;14.60;99.90
8463;DHT22;4268;52.506;13.462;2022-10-16T05:03:33;14.50;99.90
8463;DHT22;4268;52.506;13.462;2022-10-16T05:05:59;14.50;99.90
8463;DHT22;4268;52.506;13.462;2022-10-16T05:08:24;14.40;99.90
8463;DHT22;4268;52.506;13.462;2022-10-16T05:10:50;14.40;99.90
8463;DHT22;4268;52.506;13.462;2022-10-16T05:13:15;14.40;99.90
8463;DHT22;4268;52.506;13.462;2022-10-16T05:15:41;14.40;99.90
8463;DHT22;4268;52.506;13.462;2022-10-16T05:18:06;14.40;99.90
8463;DHT22;4268;52.506;13.462;2022-10-16T05:20:32;14.40;99.90
8463;DHT22;4268;52.506;13.462;2022-10-16T05:22:58;14.40;99.90
8463;DHT22;4268;52.506;13.462;2022-10-16T05:25:23;14.30;99.90
8463;DHT22;4268;52.506;13.462;2022-10-16T05:27:49;14.30;99.90
8463;DHT22;4268;52.506;13.462;2022-10-16T05:30:16;14.30;99.90
8463;DHT22;4268;52.506;13.462;2022-10-16T05:32:41;14.30;99.90
8463;DHT22;4268;52.506;13.462;2022-10-16T05:35:07;14.30;99.90
8463;DHT22;4268;52.506;13.462;2022-10-16T05:37:33;14.30;99.90
8463;DHT22;4268;52.506;13.462;2022-10-16T05:39:58;14.30;99.90
8463;DHT22;4268;52.506;13.462;2022-10-16T05:42:23;14.30;99.90
8463;DHT22;4268;52.506;13.462;2022-10-16T05:44:49;14.30;99.90
8463;DHT22;4268;52.506;13.462;2022-10-16T05:47:14;14.30;99.90
8463;DHT22;4268;52.506;13.462;2022-10-16T05:49:40;14.30;99.90
8463;DHT22;4268;52.506;13.462;2022-10-16T05:52:05;14.30;99.90
8463;DHT22;4268;52.506;13.462;2022-10-16T05:54:31;14.40;99.90
8463;DHT22;4268;52.506;13.462;2022-10-16T05:56:57;14.40;99.90
8463;DHT22;4268;52.506;13.462;2022-10-16T05:59:22;14.50;99.90
8463;DHT22;4268;52.506;13.462;2022-10-16T06:01:47;14.50;99.90
8463;DHT22;4268;52.506;13.462;2022-10-16T06:04:13;14.50;99.90
8463;DHT22;4268;52.506;13.462;2022-10-16T06:06:38;14.50;99.90
8463;DHT22;4268;52.506;13.462;2022-10-16T06:09:04;14.50;99.90
8463;DHT22;4268;52.506;13.462;2022-10-16T06:11:31;14.50;99.90
8463;DHT22;4268;52.506;13.462;2022-10-16T06:13:59;14.50;99.90
8463;DHT22;4268;52.506;13.462;2022-10-16T06:16:27;14.50;99.90
8463;DHT22;4268;52.506;13.462;2022-10-16T06:18:54;14.60;99.90
8463;DHT22;4268;52.506;13.462;2022-10-16T06:21:23;14.60;99.90
8463;DHT22;4268;52.506;13.462;2022-10-16T06:23:53;14.80;99.90
8463;DHT22;4268;52.506;13.462;2022-10-16T06:26:21;14.70;99.90
8463;DHT22;4268;52.506;13.462;2022-10-16T06:28:47;14.70;99.90
8463;DHT22;4268;52.506;13.462;2022-10-16T06:31:13;14.90;99.90
8463;DHT22;4268;52.506;13.462;2022-10-16T06:33:39;14.90;99.90
8463;DHT22;4268;52.506;13.462;2022-10-16T06:36:13;14.90;99.90
8463;DHT22;4268;52.506;13.462;2022-10-16T06:38:39;14.90;99.90
8463;DHT22;4268;52.506;13.462;2022-10-16T06:41:06;15.00;99.90
8463;DHT22;4268;52.506;13.462;2022-10-16T06:43:32;15.10;99.90
8463;DHT22;4268;52.506;13.462;2022-10-16T06:45:59;15.20;99.90
8463;DHT22;4268;52.506;13.462;2022-10-16T06:48:25;15.20;99.90
8463;DHT22;4268;52.506;13.462;2022-10-16T06:51:09;15.20;99.90
8463;DHT22;4268;52.506;13.462;2022-10-16T06:53:38;15.10;99.90
8463;DHT22;4268;52.506;13.462;2022-10-16T06:56:11;15.10;99.90
8463;DHT22;4268;52.506;13.462;2022-10-16T06:58:37;15.10;99.90
8463;DHT22;4268;52.506;13.462;2022-10-16T07:01:04;15.00;99.90
8463;DHT22;4268;52.506;13.462;2022-10-16T07:03:29;15.10;99.90
8463;DHT22;4268;52.506;13.462;2022-10-16T07:05:55;15.10;99.90
8463;DHT22;4268;52.506;13.462;2022-10-16T07:08:21;15.10;99.90
8463;DHT22;4268;52.506;13.462;2022-10-16T07:10:46;15.30;99.90
8463;DHT22;4268;52.506;13.462;2022-10-16T07:13:12;15.60;99.90
8463;DHT22;4268;52.506;13.462;2022-10-16T07:15:40;15.90;99.90
8463;DHT22;4268;52.506;13.462;2022-10-16T07:18:06;16.10;99.90
8463;DHT22;4268;52.506;13.462;2022-10-16T07:20:32;16.30;99.90
8463;DHT22;4268;52.506;13.462;2022-10-16T07:22:58;16.40;99.90
8463;DHT22;4268;52.506;13.462;2022-10-16T07:25:23;16.50;99.90
8463;DHT22;4268;52.506;13.462;2022-10-16T07:27:49;16.60;99.90
8463;DHT22;4268;52.506;13.462;2022-10-16T07:30:14;16.40;99.90
8463;DHT22;4268;52.506;13.462;2022-10-16T07:32:40;16.50;99.90
8463;DHT22;4268;52.506;13.462;2022-10-16T07:35:06;16.50;99.90
8463;DHT22;4268;52.506;13.462;2022-10-16T07:37:32;16.60;99.90
8463;DHT22;4268;52.506;13.462;2022-10-16T07:39:57;16.50;99.90
8463;DHT22;4268;52.506;13.462;2022-10-16T07:42:23;16.60;99.90
8463;DHT22;4268;52.506;13.462;2022-10-16T07:44:48;16.70;99.90
8463;DHT22;4268;52.506;13.462;2022-10-16T07:47:14;16.70;99.90
8463;DHT22;4268;52.506;13.462;2022-10-16T07:49:39;16.80;99.90
8463;DHT22;4268;52.506;13.462;2022-10-16T07:52:04;16.90;99.90
8463;DHT22;4268;52.506;13.462;2022-10-16T07:54:30;16.80;99.90
8463;DHT22;4268;52.506;13.462;2022-10-16T07:56:55;16.80;99.90
8463;DHT22;4268;52.506;13.462;2022-10-16T07:59:21;16.80;99.90
8463;DHT22;4268;52.506;13.462;2022-10-16T08:01:46;16.70;99.90
8463;DHT22;4268;52.506;13.462;2022-10-16T08:04:13;16.70;99.90
8463;DHT22;4268;52.506;13.462;2022-10-16T08:06:40;16.80;99.90
8463;DHT22;4268;52.506;13.462;2022-10-16T08:09:06;16.70;99.90
8463;DHT22;4268;52.506;13.462;2022-10-16T08:11:32;16.70;99.90
8463;DHT22;4268;52.506;13.462;2022-10-16T08:13:58;16.80;99.90
8463;DHT22;4268;52.506;13.462;2022-10-16T08:16:23;16.90;99.90
8463;DHT22;4268;52.506;13.462;2022-10-16T08:18:49;17.00;99.90
8463;DHT22;4268;52.506;13.462;2022-10-16T08:21:19;17.00;99.90
8463;DHT22;4268;52.506;13.462;2022-10-16T08:23:44;17.10;99.90
8463;DHT22;4268;52.506;13.462;2022-10-16T08:26:10;17.10;99.90
8463;DHT22;4268;52.506;13.462;2022-10-16T08:28:36;17.10;99.90
8463;DHT22;4268;52.506;13.462;2022-10-16T08:31:13;17.10;99.90
8463;DHT22;4268;52.506;13.462;2022-10-16T08:33:41;17.20;99.90
8463;DHT22;4268;52.506;13.462;2022-10-16T08:36:07;17.30;99.90
8463;DHT22;4268;52.506;13.462;2022-10-16T08:38:33;17.30;99.90
8463;DHT22;4268;52.506;13.462;2022-10-16T08:49:11;17.50;99.90
8463;DHT22;4268;52.506;13.462;2022-10-16T08:51:37;17.50;99.90
8463;DHT22;4268;52.506;13.462;2022-10-16T08:54:05;17.50;99.90
8463;DHT22;4268;52.506;13.462;2022-10-16T08:56:31;17.50;99.90
8463;DHT22;4268;52.506;13.462;2022-10-16T08:58:59;17.60;99.90
8463;DHT22;4268;52.506;13.462;2022-10-16T09:01:38;17.50;99.90
8463;DHT22;4268;52.506;13.462;2022-10-16T09:04:43;17.40;99.90
8463;DHT22;4268;52.506;13.462;2022-10-16T09:07:32;17.30;99.90
8463;DHT22;4268;52.506;13.462;2022-10-16T09:16:03;17.60;99.90
8463;DHT22;4268;52.506;13.462;2022-10-16T09:18:40;17.90;99.90
8463;DHT22;4268;52.506;13.462;2022-10-16T09:21:26;18.00;99.90
8463;DHT22;4268;52.506;13.462;2022-10-16T09:23:55;18.10;99.90
8463;DHT22;4268;52.506;13.462;2022-10-16T09:26:22;18.10;99.90
8463;DHT22;4268;52.506;13.462;2022-10-16T09:28:47;18.20;99.90
8463;DHT22;4268;52.506;13.462;2022-10-16T09:31:19;18.20;99.90
8463;DHT22;4268;52.506;13.462;2022-10-16T09:33:48;18.20;99.90
8463;DHT22;4268;52.506;13.462;2022-10-16T09:36:15;18.20;99.90
8463;DHT22;4268;52.506;13.462;2022-10-16T09:38:42;18.30;99.90
8463;DHT22;4268;52.506;13.462;2022-10-16T09:41:22;18.30;99.90
8463;DHT22;4268;52.506;13.462;2022-10-16T09:43:59;18.20;99.90
8463;DHT22;4268;52.506;13.462;2022-10-16T09:49:01;18.20;99.90
8463;DHT22;4268;52.506;13.462;2022-10-16T09:51:32;18.30;99.90
8463;DHT22;4268;52.506;13.462;2022-10-16T09:54:00;18.40;99.90
8463;DHT22;4268;52.506;13.462;2022-10-16T09:56:32;18.40;99.90
8463;DHT22;4268;52.506;13.462;2022-10-16T09:59:01;18.30;99.90
8463;DHT22;4268;52.506;13.462;2022-10-16T10:01:36;18.30;99.90
8463;DHT22;4268;52.506;13.462;2022-10-16T10:04:03;18.40;99.90
8463;DHT22;4268;52.506;13.462;2022-10-16T10:06:33;18.40;99.90
8463;DHT22;4268;52.506;13.462;2022-10-16T10:11:55;18.50;99.90
8463;DHT22;4268;52.506;13.462;2022-10-16T10:14:35;18.60;99.90
8463;DHT22;4268;52.506;13.462;2022-10-16T10:17:10;18.60;99.90
8463;DHT22;4268;52.506;13.462;2022-10-16T10:19:50;18.70;99.90
8463;DHT22;4268;52.506;13.462;2022-10-16T10:33:52;19.00;99.90
8463;DHT22;4268;52.506;13.462;2022-10-16T10:36:22;19.00;99.90
8463;DHT22;4268;52.506;13.462;2022-10-16T10:38:54;19.00;99.90
8463;DHT22;4268;52.506;13.462;2022-10-16T10:47:28;19.20;99.90
8463;DHT22;4268;52.506;13.462;2022-10-16T10:50:06;19.30;99.90
8463;DHT22;4268;52.506;13.462;2022-10-16T10:55:23;19.60;99.90
8463;DHT22;4268;52.506;13.462;2022-10-16T11:00:48;19.60;99.90
8463;DHT22;4268;52.506;13.462;2022-10-16T11:03:35;19.50;99.90
8463;DHT22;4268;52.506;13.462;2022-10-16T11:06:20;19.60;99.90
8463;DHT22;4268;52.506;13.462;2022-10-16T11:08:50;19.60;99.90
8463;DHT22;4268;52.506;13.462;2022-10-16T11:11:45;19.70;99.90
8463;DHT22;4268;52.506;13.462;2022-10-16T11:14:19;19.90;99.90
8463;DHT22;4268;52.506;13.462;2022-10-16T11:16:54;20.00;99.90
8463;DHT22;4268;52.506;13.462;2022-10-16T11:19:44;20.00;99.90
8463;DHT22;4268;52.506;13.462;2022-10-16T11:22:47;19.90;99.90
8463;DHT22;4268;52.506;13.462;2022-10-16T11:25:18;19.90;99.90
8463;DHT22;4268;52.506;13.462;2022-10-16T11:36:12;19.60;99.90
8463;DHT22;4268;52.506;13.462;2022-10-16T11:38:51;19.50;99.90
8463;DHT22;4268;52.506;13.462;2022-10-16T11:41:27;19.40;99.90
8463;DHT22;4268;52.506;13.462;2022-10-16T11:44:21;20.00;99.90
8463;DHT22;4268;52.506;13.462;2022-10-16T11:47:19;19.40;99.90
8463;DHT22;4268;52.506;13.462;2022-10-16T11:49:47;19.40;99.90
8463;DHT22;4268;52.506;13.462;2022-10-16T11:52:26;19.30;99.90
8463;DHT22;4268;52.506;13.462;2022-10-16T11:55:05;19.30;99.90
8463;DHT22;4268;52.506;13.462;2022-10-16T11:57:43;19.20;99.90
8463;DHT22;4268;52.506;13.462;2022-10-16T12:00:17;19.10;99.90
8463;DHT22;4268;52.506;13.462;2022-10-16T12:02:54;19.00;99.90
8463;DHT22;4268;52.506;13.462;2022-10-16T12:08:13;18.80;99.90
8463;DHT22;4268;52.506;13.462;2022-10-16T12:10:40;18.80;99.90
8463;DHT22;4268;52.506;13.462;2022-10-16T12:13:29;18.70;99.90
8463;DHT22;4268;52.506;13.462;2022-10-16T12:18:44;18.70;99.90
8463;DHT22;4268;52.506;13.462;2022-10-16T12:21:11;18.80;99.90
8463;DHT22;4268;52.506;13.462;2022-10-16T12:23:55;18.90;99.90
8463;DHT22;4268;52.506;13.462;2022-10-16T12:26:37;19.00;99.90
8463;DHT22;4268;52.506;13.462;2022-10-16T12:29:33;19.00;99.90
8463;DHT22;4268;52.506;13.462;2022-10-16T12:32:00;19.10;99.90
8463;DHT22;4268;52.506;13.462;2022-10-16T12:37:12;19.10;99.90
8463;DHT22;4268;52.506;13.462;2022-10-16T12:39:38;19.10;99.90
8463;DHT22;4268;52.506;13.462;2022-10-16T12:42:17;19.20;99.90
8463;DHT22;4268;52.506;13.462;2022-10-16T12:44:44;19.20;99.90
8463;DHT22;4268;52.506;13.462;2022-10-16T12:47:23;19.20;99.90
8463;DHT22;4268;52.506;13.462;2022-10-16T12:49:54;19.30;99.90
8463;DHT22;4268;52.506;13.462;2022-10-16T12:54:56;19.30;99.90
8463;DHT22;4268;52.506;13.462;2022-10-16T12:57:30;19.30;99.90
8463;DHT22;4268;52.506;13.462;2022-10-16T13:00:26;19.30;99.90
8463;DHT22;4268;52.506;13.462;2022-10-16T13:06:07;19.30;99.90
8463;DHT22;4268;52.506;13.462;2022-10-16T13:17:13;19.30;99.90
8463;DHT22;4268;52.506;13.462;2022-10-16T13:20:02;19.30;99.90
8463;DHT22;4268;52.506;13.462;2022-10-16T13:28:13;19.40;99.90
8463;DHT22;4268;52.506;13.462;2022-10-16T13:30:42;19.30;99.90
8463;DHT22;4268;52.506;13.462;2022-10-16T13:33:19;19.40;99.90
8463;DHT22;4268;52.506;13.462;2022-10-16T13:35:54;19.30;99.90
8463;DHT22;4268;52.506;13.462;2022-10-16T13:38:26;19.30;99.90
8463;DHT22;4268;52.506;13.462;2022-10-16T13:41:01;19.40;99.90
8463;DHT22;4268;52.506;13.462;2022-10-16T13:43:46;19.50;99.90
8463;DHT22;4268;52.506;13.462;2022-10-16T13:46:24;19.60;99.90
8463;DHT22;4268;52.506;13.462;2022-10-16T13:48:58;19.60;99.90
8463;DHT22;4268;52.506;13.462;2022-10-16T13:51:24;19.50;99.90
8463;DHT22;4268;52.506;13.462;2022-10-16T13:53:50;19.50;99.90
8463;DHT22;4268;52.506;13.462;2022-10-16T13:56:18;19.50;99.90
8463;DHT22;4268;52.506;13.462;2022-10-16T13:58:44;19.50;99.90
8463;DHT22;4268;52.506;13.462;2022-10-16T14:01:23;19.40;99.90
8463;DHT22;4268;52.506;13.462;2022-10-16T14:03:51;19.30;99.90
8463;DHT22;4268;52.506;13.462;2022-10-16T14:06:21;19.30;99.90
8463;DHT22;4268;52.506;13.462;2022-10-16T14:08:59;19.20;99.90
8463;DHT22;4268;52.506;13.462;2022-10-16T14:11:26;19.10;99.90
8463;DHT22;4268;52.506;13.462;2022-10-16T14:13:52;19.10;99.90
8463;DHT22;4268;52.506;13.462;2022-10-16T14:16:21;19.00;99.90
8463;DHT22;4268;52.506;13.462;2022-10-16T14:19:03;19.00;99.90
8463;DHT22;4268;52.506;13.462;2022-10-16T14:21:32;19.00;99.90
8463;DHT22;4268;52.506;13.462;2022-10-16T14:23:58;19.00;99.90
8463;DHT22;4268;52.506;13.462;2022-10-16T14:26:27;19.10;99.90
8463;DHT22;4268;52.506;13.462;2022-10-16T14:29:12;19.10;99.90
8463;DHT22;4268;52.506;13.462;2022-10-16T14:31:39;19.00;99.90
8463;DHT22;4268;52.506;13.462;2022-10-16T14:34:28;19.00;99.90
8463;DHT22;4268;52.506;13.462;2022-10-16T14:36:56;18.90;99.90
8463;DHT22;4268;52.506;13.462;2022-10-16T14:39:24;18.90;99.90
8463;DHT22;4268;52.506;13.462;2022-10-16T14:41:56;18.90;99.90
8463;DHT22;4268;52.506;13.462;2022-10-16T14:44:28;18.90;99.90
8463;DHT22;4268;52.506;13.462;2022-10-16T14:46:55;18.90;99.90
8463;DHT22;4268;52.506;13.462;2022-10-16T14:49:22;18.90;99.90
8463;DHT22;4268;52.506;13.462;2022-10-16T14:51:48;18.90;99.90
8463;DHT22;4268;52.506;13.462;2022-10-16T14:54:16;18.90;99.90
8463;DHT22;4268;52.506;13.462;2022-10-16T14:56:51;18.80;99.90
8463;DHT22;4268;52.506;13.462;2022-10-16T14:59:38;18.80;99.90
8463;DHT22;4268;52.506;13.462;2022-10-16T15:02:27;18.80;99.90
8463;DHT22;4268;52.506;13.462;2022-10-16T15:04:53;18.80;99.90
8463;DHT22;4268;52.506;13.462;2022-10-16T15:07:19;18.70;99.90
8463;DHT22;4268;52.506;13.462;2022-10-16T15:09:44;18.70;99.90
8463;DHT22;4268;52.506;13.462;2022-10-16T15:12:10;18.70;99.90
8463;DHT22;4268;52.506;13.462;2022-10-16T15:14:36;18.70;99.90
8463;DHT22;4268;52.506;13.462;2022-10-16T15:17:02;18.60;99.90
8463;DHT22;4268;52.506;13.462;2022-10-16T15:19:28;18.60;99.90
8463;DHT22;4268;52.506;13.462;2022-10-16T15:21:53;18.60;99.90
8463;DHT22;4268;52.506;13.462;2022-10-16T15:24:19;18.50;99.90
8463;DHT22;4268;52.506;13.462;2022-10-16T15:26:44;18.50;99.90
8463;DHT22;4268;52.506;13.462;2022-10-16T15:29:12;18.40;99.90
8463;DHT22;4268;52.506;13.462;2022-10-16T15:31:38;18.40;99.90
8463;DHT22;4268;52.506;13.462;2022-10-16T15:34:03;18.20;99.90
8463;DHT22;4268;52.506;13.462;2022-10-16T15:36:36;18.20;99.90
8463;DHT22;4268;52.506;13.462;2022-10-16T15:39:16;18.10;99.90
8463;DHT22;4268;52.506;13.462;2022-10-16T15:41:44;18.10;99.90
8463;DHT22;4268;52.506;13.462;2022-10-16T15:44:10;18.00;99.90
8463;DHT22;4268;52.506;13.462;2022-10-16T15:46:36;17.90;99.90
8463;DHT22;4268;52.506;13.462;2022-10-16T15:49:02;17.90;99.90
8463;DHT22;4268;52.506;13.462;2022-10-16T15:51:28;17.80;99.90
8463;DHT22;4268;52.506;13.462;2022-10-16T15:53:56;17.80;99.90
8463;DHT22;4268;52.506;13.462;2022-10-16T15:56:22;17.70;99.90
8463;DHT22;4268;52.506;13.462;2022-10-16T15:58:49;17.70;99.90
8463;DHT22;4268;52.506;13.462;2022-10-16T16:01:15;17.60;99.90
8463;DHT22;4268;52.506;13.462;2022-10-16T16:03:41;17.60;99.90
8463;DHT22;4268;52.506;13.462;2022-10-16T16:08:42;17.50;99.90
8463;DHT22;4268;52.506;13.462;2022-10-16T16:11:10;17.40;99.90
8463;DHT22;4268;52.506;13.462;2022-10-16T16:13:37;19.50;99.90
8463;DHT22;4268;52.506;13.462;2022-10-16T16:16:14;17.30;99.90
8463;DHT22;4268;52.506;13.462;2022-10-16T16:18:41;17.30;99.90
8463;DHT22;4268;52.506;13.462;2022-10-16T16:21:11;17.20;99.90
8463;DHT22;4268;52.506;13.462;2022-10-16T16:23:36;17.20;99.90
8463;DHT22;4268;52.506;13.462;2022-10-16T16:26:15;17.10;99.90
8463;DHT22;4268;52.506;13.462;2022-10-16T16:28:49;17.00;99.90
8463;DHT22;4268;52.506;13.462;2022-10-16T16:31:14;16.90;99.90
8463;DHT22;4268;52.506;13.462;2022-10-16T16:33:40;16.90;99.90
8463;DHT22;4268;52.506;13.462;2022-10-16T16:36:06;16.80;99.90
8463;DHT22;4268;52.506;13.462;2022-10-16T16:38:34;16.80;99.90
8463;DHT22;4268;52.506;13.462;2022-10-16T16:41:11;16.80;99.90
8463;DHT22;4268;52.506;13.462;2022-10-16T16:43:37;16.80;99.90
8463;DHT22;4268;52.506;13.462;2022-10-16T16:46:03;16.70;99.90
8463;DHT22;4268;52.506;13.462;2022-10-16T16:48:29;16.60;99.90
8463;DHT22;4268;52.506;13.462;2022-10-16T16:50:54;16.60;99.90
8463;DHT22;4268;52.506;13.462;2022-10-16T16:53:20;16.50;99.90
8463;DHT22;4268;52.506;13.462;2022-10-16T16:55:47;16.50;99.90
8463;DHT22;4268;52.506;13.462;2022-10-16T16:58:15;16.40;99.90
8463;DHT22;4268;52.506;13.462;2022-10-16T17:00:46;16.40;99.90
8463;DHT22;4268;52.506;13.462;2022-10-16T17:03:12;16.30;99.90
8463;DHT22;4268;52.506;13.462;2022-10-16T17:05:38;16.30;99.90
8463;DHT22;4268;52.506;13.462;2022-10-16T17:08:06;16.30;99.90
8463;DHT22;4268;52.506;13.462;2022-10-16T17:10:32;16.30;99.90
8463;DHT22;4268;52.506;13.462;2022-10-16T17:12:57;16.20;99.90
8463;DHT22;4268;52.506;13.462;2022-10-16T17:15:23;16.20;99.90
8463;DHT22;4268;52.506;13.462;2022-10-16T17:17:48;16.20;99.90
8463;DHT22;4268;52.506;13.462;2022-10-16T17:20:15;16.20;99.90
8463;DHT22;4268;52.506;13.462;2022-10-16T17:22:40;16.20;99.90
8463;DHT22;4268;52.506;13.462;2022-10-16T17:25:06;16.10;99.90
8463;DHT22;4268;52.506;13.462;2022-10-16T17:27:33;16.10;99.90
8463;DHT22;4268;52.506;13.462;2022-10-16T17:29:59;16.00;99.90